createdAt,value
2018-05-29T00:00:40.566Z,6.65
2018-05-29T00:03:08.123Z,6.65
2018-05-29T00:05:38.361Z,8.65
2018-05-29T00:08:06.604Z,7.72
2018-05-29T00:10:34.216Z,6.65
2018-05-29T00:13:02.567Z,6.82
2018-05-29T00:15:30.266Z,9.35
2018-05-29T00:17:58.024Z,7.40
2018-05-29T00:20:25.671Z,8.10
2018-05-29T00:22:54.023Z,6.80
2018-05-29T00:25:21.810Z,8.00
2018-05-29T00:27:50.479Z,6.82
2018-05-29T00:30:18.168Z,7.18
2018-05-29T00:32:46.515Z,6.78
2018-05-29T00:35:14.246Z,7.53
2018-05-29T00:37:41.845Z,9.45
2018-05-29T00:40:09.523Z,7.53
2018-05-29T00:42:37.883Z,9.38
2018-05-29T00:45:06.519Z,8.35
2018-05-29T00:47:34.205Z,8.05
2018-05-29T00:50:02.620Z,6.75
2018-05-29T00:52:30.983Z,7.20
2018-05-29T00:55:10.787Z,7.65
2018-05-29T00:57:38.400Z,8.02
2018-05-29T01:00:06.172Z,7.22
2018-05-29T01:02:36.395Z,7.60
2018-05-29T01:05:04.051Z,7.90
2018-05-29T01:07:32.563Z,7.05
2018-05-29T01:10:00.269Z,7.65
2018-05-29T01:12:28.098Z,7.00
2018-05-29T01:14:55.740Z,7.72
2018-05-29T01:17:24.269Z,6.95
2018-05-29T01:19:53.113Z,7.82
2018-05-29T01:22:21.784Z,7.12
2018-05-29T01:24:50.543Z,7.50
2018-05-29T01:27:18.288Z,8.50
2018-05-29T01:29:45.903Z,7.32
2018-05-29T01:32:14.417Z,7.40
2018-05-29T01:34:42.160Z,8.10
2018-05-29T01:37:09.991Z,7.87
2018-05-29T01:39:38.693Z,9.10
2018-05-29T01:42:07.199Z,7.60
2018-05-29T01:44:34.926Z,7.40
2018-05-29T01:47:02.681Z,7.82
2018-05-29T01:49:30.271Z,7.10
2018-05-29T01:51:58.679Z,8.38
2018-05-29T01:54:26.307Z,8.30
2018-05-29T01:56:54.760Z,8.07
2018-05-29T01:59:22.324Z,8.13
2018-05-29T02:01:50.167Z,7.78
2018-05-29T02:04:17.799Z,7.93
2018-05-29T02:06:46.231Z,8.13
2018-05-29T02:09:14.912Z,8.07
2018-05-29T02:11:42.727Z,8.10
2018-05-29T02:14:10.366Z,8.35
2018-05-29T02:16:38.825Z,8.05
2018-05-29T02:19:06.544Z,10.38
2018-05-29T02:21:34.140Z,8.20
2018-05-29T02:24:01.828Z,7.87
2018-05-29T02:26:30.296Z,8.10
2018-05-29T02:28:58.138Z,9.05
2018-05-29T02:31:25.808Z,8.45
2018-05-29T02:33:53.404Z,8.10
2018-05-29T02:36:21.092Z,8.50
2018-05-29T02:38:48.708Z,8.65
2018-05-29T02:41:16.257Z,8.25
2018-05-29T02:43:44.141Z,8.80
2018-05-29T02:46:12.636Z,8.45
2018-05-29T02:48:40.196Z,8.25
2018-05-29T02:51:07.760Z,9.30
2018-05-29T02:53:35.460Z,8.68
2018-05-29T02:56:03.792Z,8.52
2018-05-29T02:58:31.389Z,8.20
2018-05-29T03:00:59.097Z,8.25
2018-05-29T03:03:27.523Z,8.82
2018-05-29T03:05:55.101Z,8.25
2018-05-29T03:08:22.684Z,8.38
2018-05-29T03:10:50.635Z,9.05
2018-05-29T03:13:18.214Z,9.18
2018-05-29T03:15:45.772Z,9.60
2018-05-29T03:18:13.476Z,8.88
2018-05-29T03:20:41.044Z,9.40
2018-05-29T03:23:08.599Z,9.27
2018-05-29T03:25:36.413Z,9.23
2018-05-29T03:28:03.987Z,9.25
2018-05-29T03:30:31.549Z,8.68
2018-05-29T03:32:59.936Z,9.20
2018-05-29T03:35:28.285Z,9.05
2018-05-29T03:37:55.872Z,9.85
2018-05-29T03:40:24.224Z,9.68
2018-05-29T03:42:52.100Z,9.90
2018-05-29T03:45:20.607Z,11.75
2018-05-29T03:47:48.175Z,9.75
2018-05-29T03:50:15.736Z,9.52
2018-05-29T03:52:43.532Z,9.45
2018-05-29T03:55:11.108Z,9.88
2018-05-29T03:57:38.714Z,9.20
2018-05-29T04:00:06.296Z,9.70
2018-05-29T04:08:21.469Z,10.13
2018-05-29T04:10:49.031Z,9.95
2018-05-29T04:13:16.605Z,9.30
2018-05-29T04:15:44.274Z,10.80
2018-05-29T04:18:11.844Z,9.50
2018-05-29T04:20:39.415Z,10.88
2018-05-29T04:23:07.242Z,9.95
2018-05-29T04:25:35.210Z,10.43
2018-05-29T04:28:02.852Z,10.52
2018-05-29T04:30:31.192Z,11.05
2018-05-29T04:32:59.021Z,10.45
2018-05-29T04:35:26.600Z,11.00
2018-05-29T04:37:54.195Z,10.35
2018-05-29T04:40:21.868Z,10.38
2018-05-29T04:42:50.308Z,10.70
2018-05-29T04:45:17.868Z,12.68
2018-05-29T04:47:45.486Z,10.90
2018-05-29T04:50:14.652Z,12.13
2018-05-29T04:52:42.325Z,11.35
2018-05-29T04:55:09.946Z,10.85
2018-05-29T04:57:37.541Z,10.55
2018-05-29T05:00:05.146Z,10.23
2018-05-29T05:02:33.108Z,10.02
2018-05-29T05:05:00.645Z,10.45
2018-05-29T05:07:29.168Z,11.55
2018-05-29T05:09:57.687Z,11.93
2018-05-29T05:12:25.349Z,10.30
2018-05-29T05:14:52.927Z,12.48
2018-05-29T05:17:21.617Z,10.45
2018-05-29T05:19:50.277Z,12.02
2018-05-29T05:22:17.940Z,10.45
2018-05-29T05:24:45.520Z,11.05
2018-05-29T05:27:13.993Z,11.70
2018-05-29T05:29:42.335Z,12.57
2018-05-29T05:32:09.933Z,11.57
2018-05-29T05:34:38.289Z,11.18
2018-05-29T05:37:06.233Z,11.00
2018-05-29T05:39:33.811Z,11.35
2018-05-29T05:42:01.413Z,10.85
2018-05-29T05:44:29.058Z,12.10
2018-05-29T05:46:57.432Z,10.63
2018-05-29T05:49:25.797Z,11.88
2018-05-29T05:51:53.398Z,11.55
2018-05-29T05:54:21.225Z,11.02
2018-05-29T05:56:48.820Z,10.82
2018-05-29T05:59:16.392Z,11.70
2018-05-29T06:01:44.304Z,11.55
2018-05-29T06:04:11.881Z,11.63
2018-05-29T06:06:40.255Z,12.40
2018-05-29T06:09:08.598Z,12.63
2018-05-29T06:11:36.435Z,12.75
2018-05-29T06:14:04.029Z,11.88
2018-05-29T06:16:32.144Z,11.88
2018-05-29T06:19:00.521Z,12.10
2018-05-29T06:21:29.121Z,13.65
2018-05-29T06:23:56.703Z,12.45
2018-05-29T06:26:24.279Z,12.30
2018-05-29T06:28:52.748Z,11.55
2018-05-29T06:31:20.433Z,11.52
2018-05-29T06:33:48.028Z,11.82
2018-05-29T06:36:16.370Z,11.20
2018-05-29T06:38:44.290Z,12.68
2018-05-29T06:41:11.915Z,12.10
2018-05-29T06:43:40.265Z,12.35
2018-05-29T06:46:07.895Z,13.40
2018-05-29T06:48:36.368Z,12.40
2018-05-29T06:51:04.752Z,12.80
2018-05-29T06:53:33.091Z,12.77
2018-05-29T06:56:00.677Z,13.20
2018-05-29T06:58:29.272Z,12.32
2018-05-29T07:00:58.027Z,12.13
2018-05-29T07:03:26.369Z,12.40
2018-05-29T07:05:53.976Z,13.35
2018-05-29T07:08:21.773Z,12.65
2018-05-29T07:10:49.404Z,12.48
2018-05-29T07:13:17.000Z,12.20
2018-05-29T07:15:45.763Z,11.93
2018-05-29T07:18:14.366Z,14.20
2018-05-29T07:20:42.009Z,12.13
2018-05-29T07:23:10.349Z,12.85
2018-05-29T07:25:37.929Z,13.00
2018-05-29T07:28:05.568Z,12.75
2018-05-29T07:30:33.148Z,13.35
2018-05-29T07:33:00.726Z,13.13
2018-05-29T07:35:29.172Z,13.15
2018-05-29T07:37:56.760Z,13.82
2018-05-29T07:40:25.104Z,13.75
2018-05-29T07:42:52.691Z,13.35
2018-05-29T07:45:20.811Z,13.27
2018-05-29T07:47:48.387Z,13.07
2018-05-29T07:50:15.986Z,12.95
2018-05-29T07:52:44.494Z,12.93
2018-05-29T07:55:12.079Z,13.00
2018-05-29T07:57:39.656Z,13.00
2018-05-29T08:00:07.462Z,13.60
2018-05-29T08:02:35.422Z,13.07
2018-05-29T08:05:02.993Z,14.45
2018-05-29T08:07:30.616Z,13.88
2018-05-29T08:09:59.208Z,13.77
2018-05-29T08:12:26.808Z,13.52
2018-05-29T08:14:54.395Z,13.15
2018-05-29T08:17:22.231Z,13.65
2018-05-29T08:19:49.819Z,13.73
2018-05-29T08:22:17.441Z,13.27
2018-05-29T08:24:45.032Z,13.68
2018-05-29T08:27:13.539Z,13.88
2018-05-29T08:29:41.121Z,13.48
2018-05-29T08:32:08.729Z,13.62
2018-05-29T08:34:37.482Z,13.43
2018-05-29T08:37:05.200Z,12.52
2018-05-29T08:39:32.793Z,17.27
2018-05-29T08:42:00.372Z,13.48
2018-05-29T08:44:28.096Z,13.13
2018-05-29T08:46:55.668Z,13.62
2018-05-29T08:49:23.257Z,13.50
2018-05-29T08:51:51.676Z,13.35
2018-05-29T08:54:20.259Z,13.93
2018-05-29T08:56:48.850Z,13.95
2018-05-29T08:59:16.402Z,13.30
2018-05-29T09:01:44.964Z,13.90
2018-05-29T09:04:13.397Z,13.32
2018-05-29T09:06:41.924Z,13.35
2018-05-29T09:09:10.283Z,14.75
2018-05-29T09:11:37.875Z,15.35
2018-05-29T09:14:06.419Z,14.00
2018-05-29T09:16:34.000Z,13.95
2018-05-29T09:19:01.584Z,14.65
2018-05-29T09:21:29.306Z,13.52
2018-05-29T09:23:56.908Z,14.07
2018-05-29T09:26:24.497Z,15.02
2018-05-29T09:28:52.075Z,13.35
2018-05-29T09:31:19.656Z,14.40
2018-05-29T09:33:47.244Z,14.35
2018-05-29T09:36:15.605Z,14.05
2018-05-29T09:38:43.383Z,13.98
2018-05-29T09:41:11.750Z,17.83
2018-05-29T09:43:39.336Z,15.65
2018-05-29T09:46:07.852Z,14.63
2018-05-29T09:48:35.544Z,14.10
2018-05-29T09:51:03.117Z,14.73
2018-05-29T09:53:30.688Z,14.40
2018-05-29T09:55:59.072Z,16.12
2018-05-29T09:58:28.636Z,13.57
2018-05-29T10:00:56.217Z,14.02
2018-05-29T10:03:23.818Z,17.25
2018-05-29T10:05:52.300Z,16.83
2018-05-29T10:08:20.876Z,14.90
2018-05-29T10:10:48.547Z,14.13
2018-05-29T10:13:16.931Z,13.98
2018-05-29T10:15:45.336Z,15.23
2018-05-29T10:18:13.504Z,14.10
2018-05-29T10:20:41.085Z,13.73
2018-05-29T10:23:08.784Z,13.88
2018-05-29T10:25:36.446Z,13.82
2018-05-29T10:28:04.798Z,13.38
2018-05-29T10:30:32.369Z,14.40
2018-05-29T10:32:59.963Z,14.35
2018-05-29T10:35:27.626Z,14.35
2018-05-29T10:37:55.263Z,14.27
2018-05-29T10:40:22.847Z,14.48
2018-05-29T10:42:50.526Z,13.32
2018-05-29T10:45:18.101Z,14.48
2018-05-29T10:47:45.689Z,14.55
2018-05-29T10:50:13.489Z,14.50
2018-05-29T10:52:41.089Z,14.50
2018-05-29T10:55:08.740Z,12.77
2018-05-29T10:57:36.337Z,13.57
2018-05-29T11:00:03.920Z,14.10
2018-05-29T11:02:31.508Z,15.15
2018-05-29T11:04:59.118Z,14.87
2018-05-29T11:07:26.704Z,14.32
2018-05-29T11:09:54.276Z,13.60
2018-05-29T11:12:21.995Z,14.35
2018-05-29T11:14:49.598Z,15.50
2018-05-29T11:17:17.168Z,13.30
2018-05-29T11:19:45.529Z,13.02
2018-05-29T11:22:13.328Z,13.40
2018-05-29T11:24:40.908Z,13.93
2018-05-29T11:27:08.493Z,13.80
2018-05-29T11:29:36.546Z,13.52
2018-05-29T11:32:04.128Z,14.23
2018-05-29T11:34:31.810Z,14.10
2018-05-29T11:36:59.476Z,16.45
2018-05-29T11:39:27.080Z,17.08
2018-05-29T11:41:54.661Z,12.25
2018-05-29T11:44:23.004Z,12.65
2018-05-29T11:46:50.977Z,14.05
2018-05-29T11:49:18.556Z,13.30
2018-05-29T11:51:46.136Z,13.50
2018-05-29T11:54:14.060Z,14.57
2018-05-29T11:56:42.413Z,14.13
2018-05-29T11:59:10.012Z,16.27
2018-05-29T12:01:38.413Z,13.48
2018-05-29T12:04:06.556Z,13.35
2018-05-29T12:06:34.164Z,14.82
2018-05-29T12:09:01.801Z,15.55
2018-05-29T12:11:30.155Z,13.15
2018-05-29T12:13:57.737Z,12.98
2018-05-29T12:16:25.358Z,12.57
2018-05-29T12:18:52.933Z,15.77
2018-05-29T12:21:20.704Z,14.25
2018-05-29T12:23:48.292Z,13.13
2018-05-29T12:26:15.885Z,16.00
2018-05-29T12:28:43.786Z,11.50
2018-05-29T12:31:11.361Z,13.10
2018-05-29T12:33:38.945Z,17.33
2018-05-29T12:36:07.036Z,15.95
2018-05-29T12:38:34.653Z,13.48
2018-05-29T12:41:02.247Z,14.05
2018-05-29T12:43:29.845Z,16.60
2018-05-29T12:45:58.276Z,15.90
2018-05-29T12:48:26.612Z,14.25
2018-05-29T12:50:54.190Z,15.45
2018-05-29T12:53:22.567Z,12.90
2018-05-29T12:55:50.107Z,16.50
2018-05-29T12:58:17.680Z,14.50
2018-05-29T13:00:45.269Z,12.73
2018-05-29T13:03:12.854Z,14.65
2018-05-29T13:05:40.427Z,12.73
2018-05-29T13:08:08.012Z,12.75
2018-05-29T13:10:35.592Z,14.27
2018-05-29T13:13:03.173Z,11.85
2018-05-29T13:15:30.752Z,11.82
2018-05-29T13:17:58.357Z,14.93
2018-05-29T13:20:25.925Z,12.10
2018-05-29T13:22:53.505Z,11.77
2018-05-29T13:25:21.124Z,12.60
2018-05-29T13:27:48.775Z,12.07
2018-05-29T13:30:17.060Z,11.70
2018-05-29T13:32:45.437Z,12.40
2018-05-29T13:35:13.333Z,11.18
2018-05-29T13:37:40.891Z,12.88
2018-05-29T13:40:08.484Z,11.55
2018-05-29T13:42:36.201Z,12.18
2018-05-29T13:45:03.787Z,11.73
2018-05-29T13:53:46.362Z,12.32
2018-05-29T13:56:14.072Z,11.98
2018-05-29T13:58:41.664Z,11.80
2018-05-29T14:01:09.236Z,12.55
2018-05-29T14:03:36.980Z,11.85
2018-05-29T14:06:04.593Z,12.05
2018-05-29T14:08:32.944Z,11.82
2018-05-29T14:11:00.513Z,11.20
2018-05-29T14:13:28.344Z,12.05
2018-05-29T14:15:55.935Z,13.48
2018-05-29T14:18:23.505Z,11.80
2018-05-29T14:20:51.236Z,12.55
2018-05-29T14:23:19.585Z,12.70
2018-05-29T14:47:34.557Z,9.82
2018-05-29T14:50:06.768Z,10.05
2018-05-29T14:55:38.225Z,11.93
2018-05-29T14:58:05.896Z,13.18
2018-05-29T15:00:34.183Z,14.30
2018-05-29T15:03:01.915Z,11.05
2018-05-29T15:05:29.602Z,11.90
2018-05-29T15:07:58.013Z,14.93
2018-05-29T15:10:25.719Z,15.45
2018-05-29T15:12:53.364Z,12.23
2018-05-29T15:15:21.301Z,10.20
2018-05-29T15:17:48.930Z,10.27
2018-05-29T15:20:16.563Z,10.32
2018-05-29T15:22:45.681Z,7.80
2018-05-29T15:25:14.162Z,8.57
2018-05-29T15:27:42.604Z,9.27
2018-05-29T15:30:10.990Z,12.30
2018-05-29T15:32:38.778Z,8.57
2018-05-29T15:41:11.388Z,8.77
2018-05-29T15:43:39.733Z,9.68
2018-05-29T15:46:07.421Z,7.97
2018-05-29T15:48:34.979Z,9.55
2018-05-29T15:51:02.536Z,8.75
2018-05-29T15:53:30.095Z,7.18
2018-05-29T15:55:57.655Z,13.77
2018-05-29T15:58:26.039Z,12.23
2018-05-29T16:00:53.596Z,9.18
2018-05-29T16:03:21.220Z,11.23
2018-05-29T16:05:48.819Z,11.30
2018-05-29T16:08:16.375Z,11.68
2018-05-29T16:10:45.131Z,9.45
2018-05-29T16:13:12.697Z,10.40
2018-05-29T16:15:40.516Z,13.20
2018-05-29T16:18:08.083Z,15.23
2018-05-29T16:20:36.673Z,13.95
2018-05-29T16:23:05.004Z,13.45
2018-05-29T16:25:32.604Z,16.35
2018-05-29T16:28:00.886Z,13.05
2018-05-29T16:30:30.091Z,14.43
2018-05-29T16:32:58.803Z,11.80
2018-05-29T16:35:26.368Z,15.15
2018-05-29T16:37:53.937Z,12.68
2018-05-29T16:40:21.518Z,15.30
2018-05-29T16:42:49.087Z,13.27
2018-05-29T16:45:16.674Z,16.67
2018-05-29T16:47:46.084Z,18.50
2018-05-29T16:50:14.431Z,16.00
2018-05-29T16:52:42.020Z,15.32
2018-05-29T16:55:10.362Z,17.02
2018-05-29T16:57:37.963Z,14.63
2018-05-29T17:00:06.488Z,15.27
2018-05-29T17:02:34.064Z,19.87
2018-05-29T17:05:01.640Z,15.35
2018-05-29T17:07:30.044Z,14.93
2018-05-29T17:09:58.459Z,15.82
2018-05-29T17:12:26.034Z,14.15
2018-05-29T17:14:53.627Z,13.65
2018-05-29T17:17:21.744Z,14.52
2018-05-29T17:19:49.371Z,14.40
2018-05-29T17:22:16.964Z,21.60
2018-05-29T17:24:44.610Z,22.93
2018-05-29T17:27:13.055Z,14.70
2018-05-29T17:29:40.661Z,16.45
2018-05-29T17:32:09.012Z,17.30
2018-05-29T17:34:36.662Z,18.60
2018-05-29T17:37:04.278Z,15.65
2018-05-29T17:39:31.899Z,16.07
2018-05-29T17:41:59.463Z,18.77
2018-05-29T17:44:27.023Z,19.40
2018-05-29T17:46:54.578Z,16.67
2018-05-29T17:49:22.315Z,18.87
2018-05-29T17:51:49.897Z,21.90
2018-05-29T17:54:17.436Z,22.67
2018-05-29T17:56:45.102Z,15.93
2018-05-29T17:59:12.635Z,15.57
2018-05-29T18:01:40.996Z,17.07
2018-05-29T18:04:08.567Z,14.87
2018-05-29T18:06:37.676Z,19.87
2018-05-29T18:09:06.135Z,18.30
2018-05-29T18:11:33.812Z,15.87
2018-05-29T18:14:02.191Z,14.63
2018-05-29T18:16:30.590Z,17.97
2018-05-29T18:18:58.167Z,15.17
2018-05-29T18:21:25.703Z,16.77
2018-05-29T18:23:53.396Z,15.23
2018-05-29T18:26:21.614Z,13.47
2018-05-29T18:28:49.147Z,14.90
2018-05-29T18:31:16.770Z,13.77
2018-05-29T18:33:44.315Z,12.73
2018-05-29T18:36:12.626Z,13.23
2018-05-29T18:38:40.175Z,16.10
2018-05-29T18:41:08.496Z,13.87
2018-05-29T18:43:37.079Z,16.57
2018-05-29T18:46:04.616Z,14.97
2018-05-29T18:48:32.184Z,13.03
2018-05-29T18:50:59.927Z,15.10
2018-05-29T18:53:27.475Z,13.60
2018-05-29T18:55:55.311Z,14.43
2018-05-29T18:58:22.888Z,13.13
2018-05-29T19:00:51.781Z,16.00
2018-05-29T19:03:20.096Z,19.00
2018-05-29T19:05:47.676Z,17.10
2018-05-29T19:08:15.231Z,16.17
2018-05-29T19:10:42.817Z,13.37
2018-05-29T19:13:10.493Z,14.17
2018-05-29T19:15:38.091Z,15.60
2018-05-29T19:18:05.657Z,17.70
2018-05-29T19:20:33.208Z,19.00
2018-05-29T19:23:00.829Z,20.27
2018-05-29T19:25:28.316Z,35.53
2018-05-29T19:27:55.866Z,26.70
2018-05-29T19:30:24.183Z,33.67
2018-05-29T19:32:52.912Z,24.10
2018-05-29T19:35:21.334Z,22.97
2018-05-29T19:37:48.835Z,19.83
2018-05-29T19:40:16.396Z,21.07
2018-05-29T19:42:44.456Z,21.93
2018-05-29T19:45:12.044Z,23.67
2018-05-29T19:47:39.583Z,23.63
2018-05-29T19:50:07.216Z,22.23
2018-05-29T19:52:34.815Z,21.47
2018-05-29T19:55:02.459Z,22.60
2018-05-29T19:57:30.799Z,25.53
2018-05-29T19:59:58.378Z,25.63
2018-05-29T20:02:27.268Z,25.40
2018-05-29T20:04:54.807Z,26.27
2018-05-29T20:07:23.139Z,31.17
2018-05-29T20:09:50.683Z,24.57
2018-05-29T20:12:18.260Z,24.77
2018-05-29T20:14:45.803Z,23.20
2018-05-29T20:17:13.999Z,22.53
2018-05-29T20:19:41.535Z,22.33
2018-05-29T20:22:09.094Z,24.70
2018-05-29T20:24:36.737Z,19.87
2018-05-29T20:27:04.301Z,21.03
2018-05-29T20:29:31.860Z,21.70
2018-05-29T20:31:59.932Z,22.70
2018-05-29T20:34:27.478Z,23.67
2018-05-29T20:36:55.129Z,22.47
2018-05-29T20:39:22.696Z,25.50
2018-05-29T20:41:50.247Z,18.20
2018-05-29T20:44:18.587Z,20.83
2018-05-29T20:46:46.115Z,21.43
2018-05-29T20:49:14.788Z,23.37
2018-05-29T20:51:42.339Z,23.17
2018-05-29T20:54:10.647Z,21.27
2018-05-29T20:56:38.228Z,23.37
2018-05-29T20:59:05.789Z,20.40
2018-05-29T21:01:33.331Z,21.93
2018-05-29T21:04:00.936Z,24.17
2018-05-29T21:06:28.930Z,24.17
2018-05-29T21:08:57.369Z,21.23
2018-05-29T21:11:24.931Z,26.00
2018-05-29T21:13:53.409Z,24.37
2018-05-29T21:16:21.643Z,23.10
2018-05-29T21:18:49.238Z,22.97
2018-05-29T21:21:16.781Z,22.43
2018-05-29T21:23:44.949Z,19.53
2018-05-29T21:26:12.677Z,25.07
2018-05-29T21:28:41.004Z,20.10
2018-05-29T21:31:08.583Z,21.43
2018-05-29T21:33:36.298Z,22.60
2018-05-29T21:36:03.861Z,24.87
2018-05-29T21:38:32.165Z,20.73
2018-05-29T21:40:59.701Z,24.33
2018-05-29T21:43:27.390Z,24.37
2018-05-29T21:45:54.923Z,22.70
2018-05-29T21:48:22.702Z,22.47
2018-05-29T21:50:50.253Z,22.57
2018-05-29T21:53:17.820Z,21.77
2018-05-29T21:55:48.338Z,23.70
2018-05-29T21:58:16.023Z,23.00
2018-05-29T22:00:44.928Z,24.87
2018-05-29T22:03:12.468Z,21.90
2018-05-29T22:05:40.020Z,23.60
2018-05-29T22:08:07.596Z,22.97
2018-05-29T22:10:35.144Z,19.87
2018-05-29T22:13:02.719Z,21.13
2018-05-29T22:15:31.052Z,22.00
2018-05-29T22:17:58.844Z,21.37
2018-05-29T22:20:26.451Z,18.83
2018-05-29T22:22:54.000Z,20.73
2018-05-29T22:25:22.076Z,20.83
2018-05-29T22:27:49.641Z,21.00
2018-05-29T22:30:17.189Z,22.67
2018-05-29T22:32:45.575Z,18.77
2018-05-29T22:35:13.547Z,20.03
2018-05-29T22:37:41.089Z,17.23
2018-05-29T22:40:08.691Z,20.10
2018-05-29T22:42:37.101Z,18.00
2018-05-29T22:45:04.639Z,20.00
2018-05-29T22:47:32.955Z,22.37
2018-05-29T22:50:00.768Z,17.97
2018-05-29T22:52:28.692Z,19.10
2018-05-29T22:54:56.277Z,17.77
2018-05-29T22:57:23.846Z,20.17
2018-05-29T22:59:52.119Z,20.53
2018-05-29T23:02:19.669Z,18.93
2018-05-29T23:04:47.210Z,20.57
2018-05-29T23:07:15.618Z,20.70
2018-05-29T23:09:43.181Z,21.13
2018-05-29T23:12:10.741Z,19.80
2018-05-29T23:14:38.280Z,24.17
2018-05-29T23:17:05.829Z,23.00
2018-05-29T23:19:33.367Z,23.80
2018-05-29T23:22:00.955Z,25.47
2018-05-29T23:24:28.628Z,22.77
2018-05-29T23:26:56.167Z,24.60
2018-05-29T23:29:24.764Z,22.17
2018-05-29T23:31:52.817Z,22.63
2018-05-29T23:34:20.357Z,20.77
2018-05-29T23:36:48.724Z,24.80
2018-05-29T23:39:16.262Z,23.97
2018-05-29T23:41:44.532Z,23.80
2018-05-29T23:44:12.974Z,25.63
2018-05-29T23:46:40.503Z,23.63
2018-05-29T23:49:08.839Z,23.83
2018-05-29T23:51:37.085Z,24.03
2018-05-29T23:54:04.672Z,26.33
2018-05-29T23:56:32.222Z,25.37
2018-05-29T23:58:59.765Z,27.13
